Time;durP1;ratioP1;P1;durP2;ratioP2;P2;SDS_P1;SDS_P2;PMS_P1;PMS_P2;Temp;Humidity;BMP_temperature;BMP_pressure;BME280_temperature;BME280_humidity;BME280_pressure;Samples;Min_cycle;Max_cycle;Signal;HPM_P1;HPM_P2
2023/07/01 00:00:35;;;;;;;2.25;0.32;;;14.20;99.90;;;;;;5048751;28;20258;-90
2023/07/01 00:03:09;;;;;;;0.75;0.38;;;14.30;99.90;;;;;;5052474;28;20204;-90
2023/07/01 00:05:41;;;;;;;0.30;0.20;;;14.50;99.90;;;;;;5054152;28;20203;-91
2023/07/01 00:08:18;;;;;;;0.30;0.30;;;14.60;99.90;;;;;;5052403;28;20215;-91
2023/07/01 00:10:50;;;;;;;0.30;0.30;;;14.70;99.90;;;;;;5033167;28;20258;-90
2023/07/01 00:13:23;;;;;;;0.38;0.30;;;14.80;99.90;;;;;;5033567;28;20217;-91
2023/07/01 00:15:54;;;;;;;0.40;0.20;;;15.00;99.90;;;;;;5041805;28;20655;-91
2023/07/01 00:18:25;;;;;;;0.13;0.13;;;14.90;99.90;;;;;;5074187;28;20200;-89
2023/07/01 00:20:59;;;;;;;0.20;0.20;;;15.00;99.90;;;;;;5073694;28;20233;-90
2023/07/01 00:23:34;;;;;;;0.10;0.10;;;15.00;99.90;;;;;;5073450;28;20200;-90
2023/07/01 00:26:06;;;;;;;0.73;0.45;;;15.10;99.90;;;;;;5072666;28;20681;-90
2023/07/01 00:28:38;;;;;;;0.90;0.47;;;15.10;99.90;;;;;;5058459;28;20199;-90
2023/07/01 00:31:11;;;;;;;0.43;0.40;;;15.20;99.90;;;;;;5054864;28;20209;-91
2023/07/01 00:33:43;;;;;;;0.38;0.20;;;15.20;99.90;;;;;;5087627;28;20241;-90
2023/07/01 00:36:15;;;;;;;0.55;0.30;;;15.30;99.90;;;;;;5087180;28;20191;-91
2023/07/01 00:38:48;;;;;;;0.47;0.28;;;15.40;99.90;;;;;;5050753;28;20208;-89
2023/07/01 00:41:21;;;;;;;0.40;0.40;;;15.40;99.90;;;;;;5034194;28;20601;-88
2023/07/01 00:43:52;;;;;;;0.40;0.40;;;15.40;99.90;;;;;;5052515;28;20197;-90
2023/07/01 00:46:25;;;;;;;0.40;0.40;;;15.50;99.90;;;;;;5063065;28;20205;-89
2023/07/01 00:48:57;;;;;;;1.85;0.60;;;15.60;99.90;;;;;;5048263;28;20538;-89
2023/07/01 00:51:30;;;;;;;0.40;0.40;;;15.60;99.90;;;;;;5066292;28;20196;-90
2023/07/01 00:54:04;;;;;;;1.80;0.50;;;15.80;99.90;;;;;;5072462;28;20199;-90
2023/07/01 00:56:37;;;;;;;0.70;0.40;;;15.80;99.90;;;;;;5075133;28;20195;-89
2023/07/01 00:59:08;;;;;;;0.65;0.50;;;15.80;99.90;;;;;;5077429;28;20207;-91
2023/07/01 01:01:45;;;;;;;1.02;0.30;;;15.90;99.90;;;;;;5082256;28;20243;-90
2023/07/01 01:04:22;;;;;;;0.68;0.30;;;16.00;99.90;;;;;;5069554;28;20201;-90
2023/07/01 01:07:02;;;;;;;0.52;0.50;;;16.00;99.90;;;;;;5055348;28;20208;-90
2023/07/01 01:09:41;;;;;;;0.98;0.40;;;15.90;99.90;;;;;;5036069;28;20197;-90
2023/07/01 01:12:16;;;;;;;0.70;0.60;;;16.00;99.90;;;;;;5036897;28;20205;-90
2023/07/01 01:14:48;;;;;;;1.35;0.60;;;16.00;99.90;;;;;;5053479;28;20207;-89
2023/07/01 01:17:24;;;;;;;0.65;0.38;;;16.20;99.90;;;;;;5054650;28;20200;-90
2023/07/01 01:20:00;;;;;;;0.73;0.40;;;16.20;99.90;;;;;;5036711;28;20262;-90
2023/07/01 01:22:37;;;;;;;0.47;0.38;;;16.30;99.90;;;;;;5035991;28;20215;-90
2023/07/01 01:25:11;;;;;;;0.70;0.60;;;16.50;99.90;;;;;;5047767;28;20195;-90
2023/07/01 01:27:47;;;;;;;0.65;0.55;;;16.60;99.90;;;;;;5075455;28;20195;-90
2023/07/01 01:30:18;;;;;;;0.98;0.70;;;16.60;99.90;;;;;;5075331;28;20199;-89
2023/07/01 01:32:49;;;;;;;0.80;0.70;;;16.60;99.90;;;;;;5081143;28;20200;-89
2023/07/01 01:35:22;;;;;;;0.40;0.40;;;16.50;99.90;;;;;;5079338;28;20200;-89
2023/07/01 01:37:58;;;;;;;1.25;0.50;;;16.70;99.90;;;;;;5055658;28;20220;-89
2023/07/01 01:40:36;;;;;;;0.88;0.73;;;16.70;99.90;;;;;;5035292;28;20559;-89
2023/07/01 01:43:15;;;;;;;1.73;0.98;;;16.70;99.90;;;;;;5050535;28;20192;-89
2023/07/01 01:45:47;;;;;;;1.30;0.70;;;16.60;99.90;;;;;;5075309;28;20196;-90
2023/07/01 01:48:21;;;;;;;1.40;0.90;;;16.80;99.90;;;;;;5075260;28;20214;-91
2023/07/01 01:50:56;;;;;;;0.75;0.40;;;16.90;99.90;;;;;;5075717;28;20232;-91
2023/07/01 01:53:31;;;;;;;2.17;0.73;;;17.00;99.90;;;;;;5075709;28;20231;-91
2023/07/01 01:56:04;;;;;;;1.05;0.63;;;17.10;99.90;;;;;;5066516;28;20214;-91
2023/07/01 01:58:40;;;;;;;1.25;0.60;;;17.20;99.90;;;;;;5057482;28;20203;-91
2023/07/01 02:01:12;;;;;;;1.27;0.70;;;17.20;99.90;;;;;;5065164;28;20227;-91
2023/07/01 02:03:51;;;;;;;0.90;0.70;;;17.30;99.90;;;;;;5079399;28;20200;-91
2023/07/01 02:06:24;;;;;;;0.73;0.73;;;17.30;99.90;;;;;;5049382;28;20201;-92
2023/07/01 02:11:49;;;;;;;1.35;0.77;;;17.40;99.90;;;;;;5041878;28;20201;-92
2023/07/01 02:14:27;;;;;;;1.92;0.90;;;17.30;99.90;;;;;;5032285;28;20203;-92
2023/07/01 02:16:58;;;;;;;0.55;0.55;;;17.30;99.90;;;;;;5062592;28;20194;-92
2023/07/01 02:22:40;;;;;;;2.53;1.00;;;17.50;99.90;;;;;;5192595;23;20231;-90
2023/07/01 02:25:18;;;;;;;0.77;0.65;;;17.60;99.90;;;;;;5083626;28;20617;-91
2023/07/01 02:27:49;;;;;;;0.55;0.47;;;17.60;99.90;;;;;;5078289;28;20200;-90
2023/07/01 02:30:23;;;;;;;0.68;0.63;;;17.70;99.90;;;;;;5062844;28;20203;-91
2023/07/01 02:32:54;;;;;;;1.05;0.70;;;17.60;99.90;;;;;;5077706;28;20574;-90
2023/07/01 02:35:25;;;;;;;1.45;0.73;;;17.60;99.90;;;;;;5078245;28;20261;-91
2023/07/01 02:37:56;;;;;;;1.10;0.90;;;17.70;99.90;;;;;;5076702;28;20188;-90
2023/07/01 02:40:29;;;;;;;3.03;0.70;;;17.70;99.90;;;;;;5075600;28;20658;-90
2023/07/01 02:43:01;;;;;;;1.35;0.60;;;17.70;99.90;;;;;;5075072;28;20204;-90
2023/07/01 02:45:35;;;;;;;0.90;0.57;;;17.80;99.90;;;;;;5057980;28;20199;-91
2023/07/01 02:48:08;;;;;;;1.17;0.60;;;17.90;99.90;;;;;;5074400;28;20207;-91
2023/07/01 02:50:42;;;;;;;0.77;0.65;;;18.00;99.90;;;;;;5074677;28;20203;-91
2023/07/01 02:53:15;;;;;;;3.10;0.60;;;17.90;99.90;;;;;;5075775;28;20551;-91
2023/07/01 02:55:47;;;;;;;1.33;0.80;;;18.00;99.90;;;;;;5077141;28;20199;-91
2023/07/01 02:58:19;;;;;;;2.08;0.70;;;18.00;99.90;;;;;;5075483;28;20216;-90
2023/07/01 03:00:54;;;;;;;3.92;0.70;;;18.10;99.90;;;;;;5074926;28;20219;-90
2023/07/01 03:03:26;;;;;;;2.28;1.08;;;18.20;99.90;;;;;;5076372;28;20234;-90
2023/07/01 03:05:57;;;;;;;3.05;1.30;;;18.30;99.90;;;;;;5076620;28;20227;-90
2023/07/01 03:08:29;;;;;;;1.27;0.90;;;18.40;99.90;;;;;;5078661;28;20191;-91
2023/07/01 03:11:01;;;;;;;1.67;0.30;;;18.40;99.90;;;;;;5072381;28;20227;-90
2023/07/01 03:13:37;;;;;;;0.50;0.38;;;18.50;99.90;;;;;;5083263;28;20630;-91
2023/07/01 03:16:13;;;;;;;0.30;0.30;;;18.50;99.60;;;;;;5074592;28;20593;-91
2023/07/01 03:18:45;;;;;;;0.40;0.38;;;18.60;98.80;;;;;;5074989;28;20215;-91
2023/07/01 03:21:17;;;;;;;0.40;0.40;;;18.70;98.50;;;;;;5061677;28;20230;-92
2023/07/01 03:23:49;;;;;;;0.35;0.35;;;18.70;98.00;;;;;;5053939;28;20239;-91
2023/07/01 03:26:21;;;;;;;1.38;0.60;;;18.60;97.50;;;;;;5054083;28;20542;-90
2023/07/01 03:28:54;;;;;;;0.38;0.38;;;18.60;97.40;;;;;;5056529;28;20208;-89
2023/07/01 03:31:30;;;;;;;0.40;0.40;;;18.60;97.00;;;;;;5031340;28;20204;-90
2023/07/01 03:34:01;;;;;;;1.52;0.70;;;18.60;97.20;;;;;;5034000;28;20200;-90
2023/07/01 03:36:32;;;;;;;0.57;0.57;;;18.70;97.40;;;;;;5018227;28;20193;-90
2023/07/01 03:39:05;;;;;;;1.13;0.60;;;18.80;97.30;;;;;;5017345;28;20721;-91
2023/07/01 03:41:36;;;;;;;1.52;0.90;;;18.90;96.90;;;;;;5049268;28;20221;-91
2023/07/01 03:44:11;;;;;;;1.15;0.60;;;18.90;97.00;;;;;;5039348;28;20204;-90
2023/07/01 03:46:50;;;;;;;1.15;0.57;;;19.00;96.10;;;;;;5056197;28;20235;-90
2023/07/01 03:49:21;;;;;;;6.15;3.13;;;18.90;95.10;;;;;;5040123;28;20696;-91
2023/07/01 03:51:53;;;;;;;0.47;0.40;;;18.90;94.90;;;;;;5044292;28;20195;-90
2023/07/01 03:54:24;;;;;;;0.50;0.47;;;18.70;95.30;;;;;;5059324;28;20210;-91
2023/07/01 03:56:58;;;;;;;1.05;0.40;;;18.70;95.20;;;;;;5056040;28;20219;-90
2023/07/01 03:59:31;;;;;;;0.60;0.38;;;18.70;95.10;;;;;;5053230;28;20196;-90
2023/07/01 04:02:05;;;;;;;1.38;0.35;;;18.60;94.90;;;;;;5053824;28;20224;-90
2023/07/01 04:04:37;;;;;;;1.80;0.50;;;18.60;95.10;;;;;;5053633;28;20196;-91
2023/07/01 04:07:09;;;;;;;0.60;0.60;;;18.60;95.80;;;;;;5051018;28;20208;-90
2023/07/01 04:09:43;;;;;;;0.63;0.50;;;18.60;95.40;;;;;;5052589;28;20231;-89
2023/07/01 04:12:15;;;;;;;1.63;0.52;;;18.60;95.70;;;;;;5045323;28;20717;-89
2023/07/01 04:14:47;;;;;;;0.55;0.40;;;18.70;95.30;;;;;;5046549;28;20200;-89
2023/07/01 04:17:23;;;;;;;0.85;0.35;;;18.80;94.30;;;;;;5033032;28;20208;-90
2023/07/01 04:19:54;;;;;;;1.60;0.50;;;18.70;94.10;;;;;;5032806;28;20213;-89
2023/07/01 04:22:27;;;;;;;0.50;0.50;;;18.60;94.80;;;;;;5034297;28;20260;-89
2023/07/01 04:25:01;;;;;;;0.75;0.57;;;18.60;95.00;;;;;;5035870;28;20739;-90
2023/07/01 04:27:34;;;;;;;0.93;0.60;;;18.60;95.00;;;;;;5044239;28;20192;-90
2023/07/01 04:30:07;;;;;;;0.40;0.40;;;18.50;94.70;;;;;;5037127;28;20207;-91
2023/07/01 04:32:43;;;;;;;0.50;0.50;;;18.60;94.60;;;;;;5033874;28;20197;-91
2023/07/01 04:35:15;;;;;;;1.20;0.80;;;18.60;94.80;;;;;;5032833;28;20197;-92
2023/07/01 04:37:47;;;;;;;2.47;1.30;;;18.60;94.50;;;;;;5044576;28;20213;-90
2023/07/01 04:40:19;;;;;;;0.40;0.40;;;18.60;94.70;;;;;;5055310;28;20205;-91
2023/07/01 04:42:51;;;;;;;0.28;0.28;;;18.70;94.50;;;;;;5049412;28;20518;-90
2023/07/01 04:45:22;;;;;;;0.50;0.30;;;18.70;94.00;;;;;;5041954;28;20663;-91
2023/07/01 04:47:57;;;;;;;0.93;0.60;;;18.70;94.20;;;;;;5058976;28;20199;-90
2023/07/01 04:50:29;;;;;;;0.40;0.40;;;18.70;94.30;;;;;;5059098;28;20239;-90
2023/07/01 04:53:01;;;;;;;0.20;0.20;;;18.70;94.30;;;;;;5057293;28;20200;-90
2023/07/01 04:55:33;;;;;;;0.10;0.10;;;18.70;94.10;;;;;;5038101;28;20196;-89
2023/07/01 04:58:05;;;;;;;0.40;0.30;;;18.70;94.30;;;;;;5055854;28;20219;-88
2023/07/01 05:00:37;;;;;;;0.38;0.20;;;18.70;94.10;;;;;;5055302;28;20212;-88
2023/07/01 05:03:11;;;;;;;0.60;0.43;;;18.70;94.00;;;;;;5046189;28;20245;-89
2023/07/01 05:05:46;;;;;;;0.50;0.40;;;18.70;94.20;;;;;;5037117;28;20549;-89
2023/07/01 05:08:18;;;;;;;0.20;0.20;;;18.80;94.10;;;;;;5036167;28;20226;-89
2023/07/01 05:10:50;;;;;;;0.28;0.28;;;18.80;94.20;;;;;;5037532;28;20682;-89
2023/07/01 05:13:21;;;;;;;0.30;0.30;;;18.80;94.00;;;;;;5036711;28;20211;-89
2023/07/01 05:15:53;;;;;;;1.10;0.40;;;18.80;93.70;;;;;;5043744;28;20196;-89
2023/07/01 05:18:28;;;;;;;1.95;1.40;;;18.70;94.20;;;;;;5058811;28;20201;-89
2023/07/01 05:20:59;;;;;;;1.35;1.25;;;18.70;93.50;;;;;;5056947;28;20251;-89
2023/07/01 05:23:32;;;;;;;1.67;1.50;;;18.60;93.50;;;;;;5056578;28;20720;-89
2023/07/01 05:26:30;;;;;;;1.15;0.82;;;18.60;93.50;;;;;;5065142;28;20200;-88
2023/07/01 05:29:05;;;;;;;1.60;0.95;;;18.70;93.80;;;;;;5061883;28;20189;-90
2023/07/01 05:31:36;;;;;;;0.25;0.25;;;18.60;93.50;;;;;;5057583;28;20552;-90
2023/07/01 05:34:13;;;;;;;0.43;0.30;;;18.50;93.80;;;;;;5057036;28;20201;-89
2023/07/01 05:36:47;;;;;;;1.88;0.40;;;18.60;93.90;;;;;;5067481;28;20210;-91
2023/07/01 05:39:19;;;;;;;0.10;0.10;;;18.60;93.90;;;;;;5061544;28;20196;-89
2023/07/01 05:41:52;;;;;;;0.30;0.25;;;18.70;93.40;;;;;;5059111;28;20224;-88
2023/07/01 05:44:27;;;;;;;0.90;0.40;;;18.70;93.60;;;;;;5058484;28;20219;-87
2023/07/01 05:47:04;;;;;;;0.63;0.60;;;18.60;93.10;;;;;;5058209;28;20212;-88
2023/07/01 05:49:43;;;;;;;0.50;0.40;;;18.60;93.00;;;;;;5058520;28;20201;-88
2023/07/01 05:52:15;;;;;;;0.60;0.55;;;18.60;92.50;;;;;;5059255;28;20578;-91
2023/07/01 05:54:49;;;;;;;0.98;0.57;;;18.60;92.40;;;;;;5030502;28;20284;-91
2023/07/01 05:57:20;;;;;;;0.30;0.30;;;18.60;92.10;;;;;;5056698;28;20185;-91
2023/07/01 05:59:53;;;;;;;0.20;0.20;;;18.60;92.10;;;;;;5058174;28;20220;-92
2023/07/01 06:02:25;;;;;;;0.30;0.30;;;18.60;91.90;;;;;;5078622;28;20296;-91
2023/07/01 06:05:01;;;;;;;0.35;0.20;;;18.60;91.60;;;;;;5075651;28;20201;-93
2023/07/01 06:07:32;;;;;;;0.28;0.28;;;18.60;91.40;;;;;;5075275;28;20268;-93
2023/07/01 06:10:04;;;;;;;0.60;0.50;;;18.50;91.40;;;;;;5072036;28;20204;-93
2023/07/01 06:12:38;;;;;;;1.02;0.47;;;18.60;91.50;;;;;;5040654;28;20189;-92
2023/07/01 06:15:13;;;;;;;1.33;0.40;;;18.50;91.20;;;;;;5038503;28;20203;-93
2023/07/01 06:17:48;;;;;;;0.43;0.40;;;18.30;91.30;;;;;;5039114;28;20201;-93
2023/07/01 06:20:24;;;;;;;0.45;0.40;;;18.30;92.00;;;;;;5039253;28;20296;-94
2023/07/01 06:23:00;;;;;;;0.70;0.70;;;18.30;91.60;;;;;;5047484;28;20244;-94
2023/07/01 06:25:39;;;;;;;2.45;0.80;;;18.10;91.90;;;;;;5059744;28;20279;-94
2023/07/01 06:28:11;;;;;;;0.60;0.60;;;18.20;92.00;;;;;;5049560;28;20211;-94
2023/07/01 06:33:26;;;;;;;1.08;0.98;;;18.20;92.50;;;;;;5056415;28;20614;-94
2023/07/01 06:36:05;;;;;;;3.20;1.00;;;18.10;92.40;;;;;;5057782;28;20200;-94
2023/07/01 06:38:38;;;;;;;2.40;1.50;;;18.00;92.70;;;;;;5064069;28;20206;-92
2023/07/01 06:41:11;;;;;;;2.00;1.80;;;17.90;93.30;;;;;;5058798;28;20211;-92
2023/07/01 06:43:46;;;;;;;2.40;1.90;;;17.90;93.40;;;;;;5058390;28;20235;-93
2023/07/01 06:46:21;;;;;;;1.70;1.42;;;17.80;93.70;;;;;;5057434;28;20331;-92
2023/07/01 06:48:56;;;;;;;3.70;2.20;;;17.80;94.20;;;;;;5041515;28;20199;-92
2023/07/01 06:51:38;;;;;;;1.63;1.48;;;17.70;94.90;;;;;;5058015;28;20192;-94
2023/07/01 06:54:12;;;;;;;2.00;1.50;;;17.70;95.20;;;;;;5057707;28;20196;-91
2023/07/01 06:56:44;;;;;;;1.40;1.30;;;17.70;95.60;;;;;;5058523;28;20197;-93
2023/07/01 06:59:15;;;;;;;1.40;1.13;;;17.60;96.10;;;;;;5052042;28;20205;-93
2023/07/01 07:01:47;;;;;;;2.40;1.40;;;17.60;96.10;;;;;;5037967;28;20201;-94
2023/07/01 07:04:22;;;;;;;1.50;1.40;;;17.60;96.60;;;;;;5051956;28;20585;-92
2023/07/01 07:06:59;;;;;;;1.88;1.30;;;17.60;97.00;;;;;;5057140;28;20471;-93
2023/07/01 07:09:41;;;;;;;2.40;1.98;;;17.40;97.60;;;;;;5059332;28;20201;-92
2023/07/01 07:12:16;;;;;;;2.13;1.60;;;17.40;98.00;;;;;;5058947;28;20618;-93
2023/07/01 07:14:50;;;;;;;2.75;1.58;;;17.40;98.30;;;;;;5059090;28;20187;-93
2023/07/01 07:17:23;;;;;;;1.58;1.20;;;17.30;98.70;;;;;;5043602;28;20207;-92
2023/07/01 07:19:56;;;;;;;2.45;1.42;;;17.20;99.00;;;;;;5060219;28;20234;-93
2023/07/01 07:22:39;;;;;;;2.90;1.60;;;17.10;99.70;;;;;;5071728;28;20292;-90
2023/07/01 07:25:19;;;;;;;2.33;1.85;;;17.10;99.90;;;;;;5071402;28;20203;-93
2023/07/01 07:27:52;;;;;;;1.70;1.42;;;17.10;99.90;;;;;;5057519;28;20215;-93
2023/07/01 07:30:23;;;;;;;2.58;1.85;;;17.10;99.90;;;;;;5057095;28;20208;-93
2023/07/01 07:32:58;;;;;;;4.15;2.78;;;17.10;99.90;;;;;;5037133;28;20205;-93
2023/07/01 07:35:30;;;;;;;4.20;2.22;;;17.10;99.90;;;;;;5041236;28;20202;-93
2023/07/01 07:38:07;;;;;;;2.30;2.10;;;17.00;99.90;;;;;;5058086;28;20208;-92
2023/07/01 07:40:41;;;;;;;3.03;1.90;;;16.90;99.90;;;;;;5057494;28;20251;-94
2023/07/01 07:43:16;;;;;;;2.92;1.95;;;16.90;99.90;;;;;;5057724;28;20224;-93
2023/07/01 07:45:50;;;;;;;3.70;2.15;;;16.90;99.90;;;;;;5054788;28;20228;-93
2023/07/01 07:48:24;;;;;;;7.00;3.40;;;16.80;99.90;;;;;;5055720;28;20199;-93
2023/07/01 07:50:59;;;;;;;10.27;4.20;;;16.80;99.90;;;;;;5067568;28;20244;-92
2023/07/01 07:53:41;;;;;;;3.00;1.70;;;16.70;99.90;;;;;;5027377;28;20197;-94
2023/07/01 07:56:14;;;;;;;1.80;1.50;;;16.80;99.90;;;;;;5046831;28;20611;-94
2023/07/01 07:58:46;;;;;;;1.60;1.50;;;16.70;99.90;;;;;;5026920;28;20200;-94
2023/07/01 08:01:22;;;;;;;2.35;1.60;;;16.60;99.90;;;;;;5029546;28;20652;-93
2023/07/01 08:03:55;;;;;;;1.45;1.30;;;16.50;99.80;;;;;;5038533;28;20229;-94
2023/07/01 08:06:30;;;;;;;2.35;1.58;;;16.60;99.80;;;;;;5037593;28;20208;-94
2023/07/01 08:09:07;;;;;;;5.32;3.03;;;16.50;99.80;;;;;;5019931;28;20200;-93
2023/07/01 08:11:42;;;;;;;4.72;2.90;;;16.50;99.80;;;;;;5055638;28;20215;-95
2023/07/01 08:14:16;;;;;;;6.53;3.85;;;16.50;99.90;;;;;;5054216;28;20207;-92
2023/07/01 08:16:48;;;;;;;6.57;2.40;;;16.40;99.90;;;;;;5056301;28;20241;-94
2023/07/01 08:19:20;;;;;;;6.55;4.00;;;16.40;99.90;;;;;;5058746;28;20196;-93
2023/07/01 08:21:53;;;;;;;32.47;13.88;;;16.40;99.90;;;;;;5058945;28;20196;-94
2023/07/01 08:24:31;;;;;;;10.48;5.15;;;16.40;99.90;;;;;;5058444;28;20232;-94
2023/07/01 08:27:05;;;;;;;5.00;3.60;;;16.40;99.90;;;;;;5051108;28;20200;-92
2023/07/01 08:29:39;;;;;;;6.57;4.15;;;16.30;99.90;;;;;;5020615;28;20276;-94
2023/07/01 08:32:11;;;;;;;11.95;6.68;;;16.40;99.90;;;;;;5037893;28;20220;-94
2023/07/01 08:34:43;;;;;;;5.35;3.97;;;16.30;99.90;;;;;;5056263;28;20274;-94
2023/07/01 08:40:10;;;;;;;7.88;5.88;;;16.20;99.90;;;;;;5052136;28;20248;-93
2023/07/01 08:42:48;;;;;;;6.10;4.63;;;16.20;99.90;;;;;;5062508;28;20204;-93
2023/07/01 08:45:24;;;;;;;10.63;5.75;;;16.10;99.90;;;;;;5060369;28;20224;-94
2023/07/01 08:47:58;;;;;;;10.07;6.65;;;16.00;99.90;;;;;;5059610;28;20281;-90
2023/07/01 08:50:39;;;;;;;7.57;4.90;;;16.00;99.90;;;;;;5041574;28;20223;-93
2023/07/01 08:53:11;;;;;;;6.30;3.17;;;15.90;99.90;;;;;;5053372;28;20201;-93
2023/07/01 08:55:50;;;;;;;5.05;3.20;;;15.90;99.90;;;;;;5069734;28;20211;-94
2023/07/01 08:58:22;;;;;;;5.15;2.70;;;15.80;99.90;;;;;;5037104;28;20287;-94
2023/07/01 09:00:56;;;;;;;4.57;2.35;;;15.70;99.90;;;;;;5043712;28;20208;-92
2023/07/01 09:03:35;;;;;;;8.50;4.10;;;15.60;99.90;;;;;;5030170;28;20292;-92
2023/07/01 09:06:09;;;;;;;4.78;3.65;;;15.60;99.90;;;;;;5041832;28;20205;-92
2023/07/01 09:08:42;;;;;;;3.83;2.63;;;15.60;99.90;;;;;;5040224;28;20205;-93
2023/07/01 09:11:20;;;;;;;9.35;4.30;;;15.60;99.90;;;;;;5032967;28;20197;-92
2023/07/01 09:14:02;;;;;;;6.05;2.95;;;15.50;99.90;;;;;;5060560;28;20208;-93
2023/07/01 09:16:38;;;;;;;2.67;2.00;;;15.40;99.90;;;;;;5065426;28;20201;-92
2023/07/01 09:19:22;;;;;;;1.83;1.50;;;15.40;99.90;;;;;;5073155;28;20220;-93
2023/07/01 09:21:54;;;;;;;4.00;1.70;;;15.50;99.90;;;;;;5059559;28;20282;-93
2023/07/01 09:24:51;;;;;;;4.15;2.80;;;15.50;99.90;;;;;;5058660;28;20236;-93
2023/07/01 09:27:27;;;;;;;2.08;1.70;;;15.40;99.90;;;;;;5060266;28;20208;-93
2023/07/01 09:29:59;;;;;;;2.97;1.80;;;15.40;99.90;;;;;;5068259;28;20203;-94
2023/07/01 09:32:34;;;;;;;2.97;1.98;;;15.40;99.90;;;;;;5070192;28;20189;-92
2023/07/01 09:35:13;;;;;;;5.32;2.05;;;15.40;99.90;;;;;;5051465;28;20209;-92
2023/07/01 09:37:46;;;;;;;3.50;2.30;;;15.40;99.90;;;;;;5020779;28;20259;-94
2023/07/01 09:40:26;;;;;;;2.67;2.08;;;15.40;99.90;;;;;;5040731;28;20687;-94
2023/07/01 09:43:04;;;;;;;7.75;2.92;;;15.40;99.90;;;;;;5058058;28;20216;-94
2023/07/01 09:45:36;;;;;;;3.55;2.80;;;15.30;99.90;;;;;;5079592;28;20180;-94
2023/07/01 09:48:18;;;;;;;4.78;2.88;;;15.30;99.90;;;;;;5073637;28;20541;-94
2023/07/01 09:50:54;;;;;;;4.57;2.95;;;15.30;99.90;;;;;;5061196;28;20288;-94
2023/07/01 09:53:31;;;;;;;5.15;3.30;;;15.30;99.90;;;;;;5056500;28;20216;-94
2023/07/01 09:56:05;;;;;;;5.78;3.17;;;15.30;99.90;;;;;;5047920;28;20197;-94
2023/07/01 09:58:42;;;;;;;7.60;3.13;;;15.30;99.90;;;;;;5047330;28;20651;-95
2023/07/01 10:01:15;;;;;;;5.75;3.08;;;15.20;99.90;;;;;;5039286;28;20668;-92
2023/07/01 10:03:52;;;;;;;5.43;3.35;;;15.20;99.90;;;;;;5039088;28;20278;-93
2023/07/01 10:06:26;;;;;;;3.25;2.42;;;15.20;99.90;;;;;;5020945;28;20198;-94
2023/07/01 10:08:58;;;;;;;4.43;2.55;;;15.10;99.90;;;;;;5053400;28;20727;-94
2023/07/01 10:11:32;;;;;;;4.53;3.08;;;15.10;99.90;;;;;;5057716;28;20705;-94
2023/07/01 10:17:19;;;;;;;3.53;2.28;;;14.90;99.90;;;;;;5037998;28;20204;-94
2023/07/01 10:19:53;;;;;;;4.95;3.10;;;14.90;99.90;;;;;;5038450;28;20220;-94
2023/07/01 10:22:33;;;;;;;8.25;3.72;;;14.90;99.90;;;;;;5005811;28;20320;-94
2023/07/01 10:25:09;;;;;;;6.75;3.35;;;14.80;99.90;;;;;;5022423;28;20225;-94
2023/07/01 10:28:18;;;;;;;6.43;3.88;;;14.70;99.90;;;;;;5040727;28;20215;-93
2023/07/01 10:31:17;;;;;;;4.38;2.60;;;14.80;99.90;;;;;;5039537;28;20284;-93
2023/07/01 10:34:12;;;;;;;3.67;2.40;;;14.80;99.90;;;;;;5045362;28;20204;-94
2023/07/01 10:37:21;;;;;;;5.03;2.72;;;14.70;99.90;;;;;;5067629;28;20189;-94
2023/07/01 10:39:53;;;;;;;1.75;1.60;;;14.70;99.90;;;;;;5072738;28;20207;-93
2023/07/01 10:42:31;;;;;;;3.38;2.15;;;14.70;99.90;;;;;;5071300;28;20200;-94
2023/07/01 10:45:49;;;;;;;7.53;4.05;;;14.70;99.90;;;;;;5072351;28;20287;-93
2023/07/01 10:48:22;;;;;;;5.10;2.25;;;14.70;99.90;;;;;;4967125;28;20207;-94
2023/07/01 10:51:14;;;;;;;1.85;1.50;;;14.60;99.90;;;;;;4978572;28;20203;-94
2023/07/01 10:54:07;;;;;;;1.90;1.60;;;14.50;99.90;;;;;;4979664;28;20191;-94
2023/07/01 10:56:42;;;;;;;2.85;1.90;;;14.40;99.90;;;;;;4994357;28;20205;-94
2023/07/01 10:59:30;;;;;;;2.00;1.60;;;14.40;99.90;;;;;;5038608;28;20572;-94
2023/07/01 11:02:04;;;;;;;2.25;1.70;;;14.30;99.90;;;;;;5039862;28;20197;-92
2023/07/01 11:05:09;;;;;;;2.20;1.80;;;14.30;99.90;;;;;;5059795;28;20219;-94
2023/07/01 11:07:45;;;;;;;1.95;1.60;;;14.20;99.90;;;;;;5055173;28;20214;-94
2023/07/01 11:12:47;;;;;;;1.50;1.30;;;14.30;99.90;;;;;;5094226;22;21221;-92
2023/07/01 11:21:24;;;;;;;1.10;1.00;;;14.20;99.90;;;;;;5064757;28;20205;-95
2023/07/01 11:27:23;;;;;;;1.30;1.20;;;14.10;99.90;;;;;;5063402;28;20622;-94
2023/07/01 11:35:29;;;;;;;1.00;0.90;;;14.10;99.90;;;;;;5053968;28;20252;-95
2023/07/01 11:38:51;;;;;;;1.00;0.90;;;14.10;99.90;;;;;;5045736;28;20743;-93
2023/07/01 11:44:47;;;;;;;1.67;1.00;;;14.00;99.90;;;;;;5067663;28;20318;-93
2023/07/01 11:47:29;;;;;;;3.20;1.20;;;14.10;99.90;;;;;;5064814;28;20185;-94
2023/07/01 11:50:08;;;;;;;1.13;1.00;;;14.20;99.90;;;;;;5065931;28;20192;-94
2023/07/01 11:52:45;;;;;;;1.02;0.93;;;14.20;99.90;;;;;;5118797;22;20325;-91
2023/07/01 11:55:36;;;;;;;0.90;0.80;;;14.20;99.90;;;;;;5031862;28;20196;-92
2023/07/01 11:58:31;;;;;;;0.98;0.82;;;14.20;99.90;;;;;;5064113;28;20209;-93
2023/07/01 12:01:33;;;;;;;0.60;0.60;;;14.10;99.90;;;;;;5139862;22;20229;-92
2023/07/01 12:04:20;;;;;;;1.02;0.60;;;14.10;99.90;;;;;;5043385;28;20786;-90
2023/07/01 12:06:51;;;;;;;2.22;0.88;;;14.00;99.90;;;;;;5043775;28;20203;-91
2023/07/01 12:10:23;;;;;;;1.20;0.75;;;14.10;99.90;;;;;;5025946;28;20212;-92
2023/07/01 12:13:04;;;;;;;0.80;0.65;;;14.10;99.90;;;;;;5033603;28;20726;-91
2023/07/01 12:16:17;;;;;;;1.08;0.90;;;14.10;99.90;;;;;;5045410;28;20185;-92
2023/07/01 12:19:20;;;;;;;2.80;1.00;;;14.20;99.90;;;;;;5042737;28;20225;-90
2023/07/01 12:21:57;;;;;;;0.70;0.70;;;14.10;99.90;;;;;;5034591;28;20200;-91
2023/07/01 12:24:30;;;;;;;1.73;0.70;;;14.10;99.90;;;;;;5027829;28;20229;-91
2023/07/01 12:27:04;;;;;;;1.27;1.15;;;14.20;99.90;;;;;;5013868;28;20213;-92
2023/07/01 12:29:36;;;;;;;0.90;0.70;;;14.30;99.90;;;;;;4996823;28;20194;-90
2023/07/01 12:32:11;;;;;;;1.05;0.95;;;14.30;99.90;;;;;;5013271;28;20208;-90
2023/07/01 12:34:47;;;;;;;1.60;0.90;;;14.30;99.90;;;;;;5019920;28;20223;-90
2023/07/01 12:37:21;;;;;;;0.60;0.60;;;14.20;99.90;;;;;;5041651;28;20197;-91
2023/07/01 12:39:55;;;;;;;1.52;0.50;;;14.20;99.90;;;;;;5053989;28;20195;-91
2023/07/01 12:42:28;;;;;;;0.40;0.40;;;14.20;99.90;;;;;;5038524;28;20227;-91
2023/07/01 12:45:00;;;;;;;2.15;0.50;;;14.20;99.90;;;;;;5033421;28;20217;-91
2023/07/01 12:47:32;;;;;;;0.40;0.40;;;14.30;99.90;;;;;;5034055;28;20214;-92
2023/07/01 12:50:09;;;;;;;0.80;0.40;;;14.30;99.90;;;;;;5033601;28;20207;-92
2023/07/01 12:52:40;;;;;;;0.47;0.43;;;14.30;99.90;;;;;;5013940;28;20716;-92
2023/07/01 12:55:13;;;;;;;0.43;0.43;;;14.40;99.90;;;;;;5013812;28;20198;-92
2023/07/01 12:57:45;;;;;;;0.40;0.35;;;14.40;99.90;;;;;;5022669;28;20208;-92
2023/07/01 13:00:19;;;;;;;0.50;0.45;;;14.40;99.90;;;;;;5013787;28;20214;-92
2023/07/01 13:02:51;;;;;;;0.63;0.43;;;14.30;99.90;;;;;;5014194;28;20194;-92
2023/07/01 13:05:27;;;;;;;0.40;0.40;;;14.30;99.90;;;;;;5024895;28;20226;-90
2023/07/01 13:08:00;;;;;;;0.35;0.35;;;14.40;99.90;;;;;;5027887;28;20220;-91
2023/07/01 13:10:31;;;;;;;0.50;0.50;;;14.40;99.90;;;;;;5018924;28;20198;-92
2023/07/01 13:13:03;;;;;;;0.50;0.50;;;14.30;99.90;;;;;;5031102;28;20252;-93
2023/07/01 13:15:36;;;;;;;0.50;0.50;;;14.20;99.90;;;;;;5017894;28;20199;-91
2023/07/01 13:18:09;;;;;;;0.50;0.50;;;14.20;99.90;;;;;;5035815;28;20201;-90
2023/07/01 13:20:47;;;;;;;1.85;0.50;;;14.20;99.90;;;;;;5018415;28;20201;-91
2023/07/01 13:23:20;;;;;;;0.40;0.40;;;14.30;99.90;;;;;;5037041;28;20212;-91
2023/07/01 13:25:54;;;;;;;0.77;0.50;;;14.30;99.90;;;;;;5036598;28;20573;-92
2023/07/01 13:28:27;;;;;;;0.80;0.50;;;14.30;99.90;;;;;;5036799;28;20560;-92
2023/07/01 13:30:59;;;;;;;0.52;0.50;;;14.30;99.90;;;;;;5036833;28;20208;-91
2023/07/01 13:33:31;;;;;;;0.65;0.60;;;14.20;99.90;;;;;;5042735;28;20189;-88
2023/07/01 13:36:17;;;;;;;0.52;0.43;;;14.30;99.90;;;;;;5058062;28;20180;-90
2023/07/01 13:38:53;;;;;;;1.70;0.50;;;14.20;99.90;;;;;;5045897;28;20205;-89
2023/07/01 13:41:29;;;;;;;0.95;0.30;;;14.30;99.90;;;;;;5037667;28;20660;-90
2023/07/01 13:44:07;;;;;;;0.50;0.50;;;14.20;99.90;;;;;;5039073;28;20221;-91
2023/07/01 13:46:41;;;;;;;0.70;0.50;;;14.20;99.90;;;;;;5036762;28;20211;-92
2023/07/01 13:49:15;;;;;;;0.40;0.40;;;14.30;99.90;;;;;;5034970;28;20204;-91
2023/07/01 13:51:49;;;;;;;1.00;0.32;;;14.30;99.90;;;;;;5018082;28;20204;-90
2023/07/01 13:54:24;;;;;;;0.98;0.50;;;14.30;99.90;;;;;;5018524;28;20197;-92
2023/07/01 13:56:57;;;;;;;0.47;0.40;;;14.40;99.90;;;;;;5037070;28;20203;-93
2023/07/01 13:59:30;;;;;;;0.55;0.50;;;14.30;99.90;;;;;;5038855;28;20205;-93
2023/07/01 14:02:03;;;;;;;0.60;0.52;;;14.30;99.90;;;;;;5037139;28;20225;-95
2023/07/01 14:04:37;;;;;;;0.40;0.40;;;14.30;99.90;;;;;;5037780;28;20252;-93